Time,TemperatureF,DewpointF,PressureIn,WindDirection,WindDirectionDegrees,WindSpeedMPH,WindSpeedGustMPH,Humidity,HourlyPrecipIn,Conditions,Clouds,dailyrainin,SoftwareType,DateUTC
2013-08-29 00:01:00,73.0,-99.9,30.21,SSW,195,0.0,0.0,-999,0.00,,,0.13,,2013-08-29 07:01:00,
2013-08-29 00:12:00,73.0,-99.9,30.21,SSW,195,0.0,0.0,-999,0.00,,,0.13,,2013-08-29 07:12:00,
2013-08-29 01:52:00,72.0,-99.9,30.20,SSW,195,0.0,0.0,-999,0.00,,,0.13,,2013-08-29 08:52:00,
2013-08-29 02:01:00,72.0,-99.9,30.20,SSW,195,0.0,0.0,-999,0.00,,,0.13,,2013-08-29 09:01:00,
2013-08-29 02:12:00,72.0,-99.9,30.20,SSW,195,0.0,0.0,-999,0.00,,,0.13,,2013-08-29 09:12:00,
2013-08-29 02:55:00,71.0,-99.9,30.20,SSW,195,0.0,0.0,-999,0.00,,,0.13,,2013-08-29 09:55:00,
2013-08-29 03:15:00,71.0,-99.9,30.21,SSW,195,0.0,0.0,-999,0.00,,,0.13,,2013-08-29 10:15:00,
2013-08-29 03:24:00,71.0,-99.9,30.21,SSW,195,0.0,0.0,-999,0.00,,,0.13,,2013-08-29 10:24:00,
2013-08-29 03:33:00,71.0,-99.9,30.21,SSW,195,0.0,0.0,-999,0.00,,,0.13,,2013-08-29 10:33:00,
2013-08-29 04:52:00,71.0,-99.9,30.22,SSW,195,0.0,0.0,-999,0.00,,,0.13,,2013-08-29 11:52:00,
2013-08-29 05:12:00,71.0,-99.9,30.22,SSW,195,0.0,0.0,-999,0.00,,,0.13,,2013-08-29 12:12:00,
2013-08-29 05:22:00,71.0,-99.9,30.22,SSW,195,0.0,0.0,-999,0.00,,,0.13,,2013-08-29 12:22:00,
2013-08-29 05:52:00,71.0,-99.9,30.22,SSW,195,0.0,0.0,-999,0.00,,,0.13,,2013-08-29 12:52:00,
2013-08-29 06:12:00,70.0,-99.9,30.22,SSW,195,0.0,0.0,-999,0.00,,,0.13,,2013-08-29 13:12:00,
2013-08-29 06:22:00,70.0,-99.9,30.22,SSW,195,0.0,0.0,-999,0.00,,,0.13,,2013-08-29 13:22:00,
2013-08-29 06:52:00,70.0,-99.9,30.24,SSW,195,0.0,0.0,-999,0.00,,,0.13,,2013-08-29 13:52:00,
2013-08-29 07:11:00,70.0,-99.9,30.25,SSW,195,0.0,0.0,-999,0.00,,,0.13,,2013-08-29 14:11:00,
2013-08-29 07:22:00,70.0,-99.9,30.25,SSW,195,0.0,0.0,-999,0.00,,,0.13,,2013-08-29 14:22:00,
2013-08-29 07:52:00,71.0,-99.9,30.26,SSW,194,0.0,0.0,-999,0.00,,,0.13,,2013-08-29 14:52:00,
2013-08-29 08:12:00,71.0,-99.9,30.27,South,178,0.0,0.0,-999,0.00,,,0.13,,2013-08-29 15:12:00,
2013-08-29 08:22:00,71.0,-99.9,30.27,South,178,0.0,0.0,-999,0.00,,,0.13,,2013-08-29 15:22:00,
2013-08-29 08:53:00,73.0,-99.9,30.27,South,178,0.0,0.0,-999,0.00,,,0.13,,2013-08-29 15:53:00,
2013-08-29 09:13:00,73.0,-99.9,30.28,South,170,2.0,5.0,-999,0.00,,,0.13,,2013-08-29 16:13:00,
2013-08-29 09:24:00,73.0,-99.9,30.28,South,170,2.0,5.0,-999,0.00,,,0.13,,2013-08-29 16:24:00,
2013-08-29 09:54:00,75.0,-99.9,30.28,South,191,0.0,0.0,-999,0.00,,,0.13,,2013-08-29 16:54:00,
2013-08-29 10:13:00,76.0,-99.9,30.29,SSW,202,0.0,0.0,-999,0.00,,,0.13,,2013-08-29 17:13:00,
2013-08-29 10:23:00,76.0,-99.9,30.29,SSW,202,0.0,0.0,-999,0.00,,,0.13,,2013-08-29 17:23:00,
2013-08-29 10:53:00,77.0,-99.9,30.29,SSW,202,0.0,0.0,-999,0.00,,,0.13,,2013-08-29 17:53:00,
2013-08-29 11:12:00,78.0,-99.9,30.29,NNW,330,1.0,3.0,-999,0.00,,,0.13,,2013-08-29 18:12:00,
2013-08-29 11:22:00,78.0,-99.9,30.29,NNW,330,1.0,3.0,-999,0.00,,,0.13,,2013-08-29 18:22:00,
2013-08-29 11:52:00,75.0,-99.9,30.28,West,265,0.0,0.0,-999,0.00,,,0.13,,2013-08-29 18:52:00,
2013-08-29 12:11:00,78.0,-99.9,30.27,WNW,285,0.0,0.0,-999,0.00,,,0.13,,2013-08-29 19:11:00,
2013-08-29 12:22:00,78.0,-99.9,30.27,WNW,285,0.0,0.0,-999,0.00,,,0.13,,2013-08-29 19:22:00,
2013-08-29 12:53:00,78.0,-99.9,30.27,West,262,2.0,5.0,-999,0.00,,,0.01,,2013-08-29 19:53:00,
2013-08-29 13:13:00,80.0,-99.9,30.26,NW,310,0.0,5.0,-999,0.00,,,0.01,,2013-08-29 20:13:00,
2013-08-29 13:22:00,80.0,-99.9,30.26,NW,310,0.0,5.0,-999,0.00,,,0.01,,2013-08-29 20:22:00,
2013-08-29 13:52:00,80.0,-99.9,30.24,West,275,2.0,6.0,-999,0.00,,,0.00,,2013-08-29 20:52:00,
2013-08-29 14:12:00,80.0,-99.9,30.24,WNW,291,0.0,5.0,-999,0.00,,,0.00,,2013-08-29 21:12:00,
2013-08-29 14:22:00,80.0,-99.9,30.24,WNW,291,0.0,5.0,-999,0.00,,,0.00,,2013-08-29 21:22:00,
2013-08-29 14:54:00,77.0,-99.9,30.24,WSW,253,4.0,13.0,-999,0.00,,,0.00,,2013-08-29 21:54:00,
2013-08-29 15:14:00,73.0,-99.9,30.24,SW,236,1.0,1.0,-999,0.08,,,0.08,,2013-08-29 22:14:00,
2013-08-29 15:24:00,73.0,-99.9,30.24,SW,236,1.0,1.0,-999,0.08,,,0.08,,2013-08-29 22:24:00,
2013-08-29 15:53:00,74.0,-99.9,30.24,SW,217,0.0,0.0,-999,0.08,,,0.08,,2013-08-29 22:53:00,
2013-08-29 16:13:00,72.0,-99.9,30.24,South,185,2.0,7.0,-999,0.01,,,0.09,,2013-08-29 23:13:00,
2013-08-29 16:22:00,72.0,-99.9,30.24,South,185,2.0,7.0,-999,0.01,,,0.09,,2013-08-29 23:22:00,
2013-08-29 16:43:00,73.0,-99.9,30.26,South,187,0.0,5.0,-999,0.01,,,0.09,,2013-08-29 23:43:00,
2013-08-29 16:53:00,73.0,-99.9,30.26,South,187,0.0,5.0,-999,0.01,,,0.09,,2013-08-29 23:53:00,
2013-08-29 17:22:00,73.0,-99.9,30.27,South,180,0.0,3.0,-999,0.00,,,0.09,,2013-08-30 00:22:00,
2013-08-29 17:52:00,72.0,-99.9,30.27,South,171,0.0,0.0,-999,0.00,,,0.09,,2013-08-30 00:52:00,
2013-08-29 18:12:00,72.0,-99.9,30.27,SSW,192,0.0,0.0,-999,0.00,,,0.09,,2013-08-30 01:12:00,
2013-08-29 18:22:00,72.0,-99.9,30.27,SSW,192,0.0,0.0,-999,0.00,,,0.09,,2013-08-30 01:22:00,
2013-08-29 18:52:00,71.0,-99.9,30.27,SW,232,2.0,7.0,-999,0.01,,,0.10,,2013-08-30 01:52:00,
2013-08-29 19:11:00,71.0,-99.9,30.27,SSW,208,0.0,6.0,-999,0.01,,,0.10,,2013-08-30 02:11:00,
2013-08-29 19:22:00,71.0,-99.9,30.27,SSW,208,0.0,6.0,-999,0.01,,,0.10,,2013-08-30 02:22:00,
2013-08-29 19:52:00,71.0,-99.9,30.27,South,184,0.0,0.0,-999,0.00,,,0.10,,2013-08-30 02:52:00,
2013-08-29 20:12:00,71.0,-99.9,30.29,South,191,0.0,0.0,-999,0.00,,,0.10,,2013-08-30 03:12:00,
2013-08-29 20:22:00,71.0,-99.9,30.29,South,191,0.0,0.0,-999,0.00,,,0.10,,2013-08-30 03:22:00,
2013-08-29 20:55:00,70.0,-99.9,30.29,SSW,195,0.0,0.0,-999,0.00,,,0.10,,2013-08-30 03:55:00,
2013-08-29 21:14:00,70.0,-99.9,30.30,South,189,0.0,0.0,-999,0.00,,,0.10,,2013-08-30 04:14:00,
2013-08-29 21:25:00,70.0,-99.9,30.30,South,189,0.0,0.0,-999,0.00,,,0.10,,2013-08-30 04:25:00,
2013-08-29 21:54:00,69.0,-99.9,30.29,South,189,0.0,0.0,-999,0.00,,,0.10,,2013-08-30 04:54:00,
2013-08-29 22:12:00,69.0,-99.9,30.30,South,189,0.0,0.0,-999,0.00,,,0.10,,2013-08-30 05:12:00,
2013-08-29 22:23:00,69.0,-99.9,30.30,South,189,0.0,0.0,-999,0.00,,,0.10,,2013-08-30 05:23:00,
2013-08-29 22:52:00,69.0,-99.9,30.30,South,189,0.0,0.0,-999,0.00,,,0.10,,2013-08-30 05:52:00,
2013-08-29 23:12:00,70.0,-99.9,30.30,South,189,0.0,0.0,-999,0.00,,,0.10,,2013-08-30 06:12:00,
2013-08-29 23:22:00,70.0,-99.9,30.30,South,189,0.0,0.0,-999,0.00,,,0.10,,2013-08-30 06:22:00,
2013-08-29 23:53:00,70.0,-99.9,30.30,South,189,0.0,0.0,-999,0.00,,,0.10,,2013-08-30 06:53:00,